메인 페이지
METAR-TAF:

METAR-TAF

공항 :

Dutchess County Airport

Poughkeepsie, 뉴욕, 미국

위도: 41-37-36N, 경도: 073-53-03W, 고도: 50m

현재 날씨관측

예보는 29분 전, 06:53시(UTC)에 발표되었습니다.
무풍
온도 7°C
습도 93%
기압 1020 hPa
시정: 16.1km
맑음

METAR: KPOU 220653Z AUTO 00000KT 10SM CLR 07/06 A3012 RMK AO2 SLP195 T00670056

시각: 03:22 (07:22 UTC)

예보

예보는 1 시간 46분 전, 05:36시(UTC)에 발표되었습니다.
예보 대상 시간: 22일 06시부터 23일 06시까지 (UTC)
kt
시정: 10km
고도 20000ft 상공 구름 많음
22일 1400시부터 (UTC)
3kt, 순간 최대 풍속 12kt
시정: 10km
고도 2000ft 상공 구름 많음
확률 30%
22일 15시부터 22일 18시까지 (UTC)
시정: 6.4km
고도 1000ft 상공 흐림
약한소나기
22일 2000시부터 (UTC)
동남동6kt
시정: 9.7km
고도 1000ft 상공 흐림
약한비
23일 0500시부터 (UTC)
여러 방향의 바람 3kt
시정: 9.7km
고도 300ft 상공 흐림
약한비

TAF: KPOU 220536Z 2206/2306 00000KT P6SM BKN200 FM221400 10003G12KT P6SM BKN020 PROB30 2215/2218 4SM -SHRA OVC010 FM222000 11006KT 6SM -RA OVC010 FM230500 VRB03KT 6SM -RA OVC003

4,000개 이상의 공항 관측 자료 및 예보 (METAR 및 TAF 보고).

지도상에서 검색 가능한 기상관측소가 노란 점과 빨간 점으로 표시되어 있습니다.

기상관측소 명을 보려면 표시 위로 마우스를 이동하세요.

날씨 관측과 예보를 보려면 클릭하세요.

지도 변경 : 확대하려면 엑스 표시가 있는 녹색 버튼, 축소하려면 빼기 표시가 있는 녹색 버튼, 다음 페이지의 지도를 보려면 녹색 화살표를 클릭하세요.


METAR-TAF: